createdAt,value
2023-04-05T00:01:18.490Z,98519.03
2023-04-05T00:04:24.827Z,98509.94
2023-04-05T00:07:36.250Z,98502.50
2023-04-05T00:10:42.989Z,98507.69
2023-04-05T00:13:53.146Z,98504.44
2023-04-05T00:16:59.214Z,98502.84
2023-04-05T00:20:08.337Z,98492.72
2023-04-05T00:23:14.986Z,98491.72
2023-04-05T00:26:22.635Z,98480.81
2023-04-05T00:29:36.185Z,98478.88
2023-04-05T00:32:43.038Z,98478.81
2023-04-05T00:35:49.830Z,98477.88
2023-04-05T00:38:56.786Z,98483.19
2023-04-05T00:42:06.471Z,98473.59
2023-04-05T00:45:17.449Z,98473.00
2023-04-05T00:48:33.399Z,98473.19
2023-04-05T00:51:42.419Z,98475.50
2023-04-05T00:54:49.636Z,98473.50
2023-04-05T00:58:11.538Z,98472.50
2023-04-05T01:01:38.354Z,98471.00
2023-04-05T01:04:50.898Z,98469.63
2023-04-05T01:08:11.145Z,98461.59
2023-04-05T01:11:22.437Z,98460.56
2023-04-05T01:14:28.789Z,98453.66
2023-04-05T01:17:39.747Z,98456.13
2023-04-05T01:20:58.554Z,98455.38
2023-04-05T01:24:36.372Z,98452.00
2023-04-05T01:28:16.319Z,98450.81
2023-04-05T01:31:40.494Z,98449.91
2023-04-05T01:34:57.362Z,98449.03
2023-04-05T01:38:15.756Z,98436.59
2023-04-05T01:41:22.094Z,98438.91
2023-04-05T01:44:31.532Z,98436.38
2023-04-05T01:47:40.075Z,98446.59
2023-04-05T01:50:48.431Z,98446.75
2023-04-05T01:53:54.543Z,98450.16
2023-04-05T01:57:01.428Z,98441.16
2023-04-05T02:00:13.620Z,98438.59
2023-04-05T02:03:23.073Z,98434.34
2023-04-05T02:06:29.334Z,98425.13
2023-04-05T02:09:36.062Z,98427.47
2023-04-05T02:12:42.053Z,98421.88
2023-04-05T02:15:52.383Z,98427.97
2023-04-05T02:19:02.689Z,98425.44
2023-04-05T02:22:09.875Z,98421.34
2023-04-05T02:25:16.253Z,98418.47
2023-04-05T02:28:24.466Z,98410.25
2023-04-05T02:31:33.158Z,98411.63
2023-04-05T02:34:43.235Z,98415.72
2023-04-05T02:37:49.211Z,98414.97
2023-04-05T02:40:55.957Z,98414.69
2023-04-05T02:44:02.066Z,98405.91
2023-04-05T02:47:10.591Z,98415.31
2023-04-05T02:50:20.943Z,98410.84
2023-04-05T02:53:28.120Z,98403.25
2023-04-05T02:56:39.739Z,98401.63
2023-04-05T02:59:52.442Z,98404.78
2023-04-05T03:03:00.290Z,98400.09
2023-04-05T03:06:13.774Z,98398.63
2023-04-05T03:09:27.901Z,98392.97
2023-04-05T03:12:38.751Z,98401.50
2023-04-05T03:15:47.488Z,98399.75
2023-04-05T03:18:57.893Z,98395.19
2023-04-05T03:22:06.528Z,98388.25
2023-04-05T03:25:17.696Z,98397.44
2023-04-05T03:28:27.195Z,98396.53
2023-04-05T03:31:39.293Z,98392.41
2023-04-05T03:34:48.206Z,98398.13
2023-04-05T03:38:00.271Z,98400.91
2023-04-05T03:41:07.177Z,98399.97
2023-04-05T03:44:15.394Z,98391.78
2023-04-05T03:47:23.462Z,98378.94
2023-04-05T03:50:32.298Z,98396.34
2023-04-05T03:53:41.102Z,98399.34
2023-04-05T03:56:48.618Z,98402.06
2023-04-05T04:00:00.321Z,98396.28
2023-04-05T04:03:10.180Z,98402.69
2023-04-05T04:06:20.480Z,98402.03
2023-04-05T04:09:31.139Z,98402.16
2023-04-05T04:12:44.592Z,98399.06
2023-04-05T04:15:51.809Z,98400.28
2023-04-05T04:19:14.005Z,98403.25
2023-04-05T04:22:38.957Z,98387.34
2023-04-05T04:26:01.983Z,98393.84
2023-04-05T04:29:31.384Z,98388.72
2023-04-05T04:32:56.566Z,98390.31
2023-04-05T04:36:41.507Z,98392.63
2023-04-05T04:40:26.009Z,98390.31
2023-04-05T04:43:47.839Z,98391.03
2023-04-05T04:47:04.451Z,98398.13
2023-04-05T04:50:26.198Z,98390.25
2023-04-05T04:53:32.181Z,98389.84
2023-04-05T04:56:39.131Z,98395.13
2023-04-05T04:59:47.670Z,98398.19
2023-04-05T05:02:55.387Z,98399.78
2023-04-05T05:06:02.938Z,98386.53
2023-04-05T05:09:12.053Z,98389.16
2023-04-05T05:12:30.372Z,98393.91
2023-04-05T05:15:45.342Z,98398.19
2023-04-05T05:18:51.508Z,98396.78
2023-04-05T05:21:58.333Z,98399.00
2023-04-05T05:25:04.111Z,98403.91
2023-04-05T05:28:11.160Z,98398.78
2023-04-05T05:31:20.312Z,98408.63
2023-04-05T05:34:28.420Z,98410.31
2023-04-05T05:37:38.130Z,98417.94
2023-04-05T05:40:44.986Z,98412.19
2023-04-05T05:43:51.034Z,98406.19
2023-04-05T05:47:00.794Z,98409.56
2023-04-05T05:50:07.137Z,98411.81
2023-04-05T05:53:13.837Z,98398.69
2023-04-05T05:56:19.889Z,98413.53
2023-04-05T05:59:26.700Z,98413.59
2023-04-05T06:02:35.497Z,98410.69
2023-04-05T06:05:44.081Z,98418.84
2023-04-05T06:08:51.948Z,98414.44
2023-04-05T06:11:59.342Z,98412.53
2023-04-05T06:15:18.540Z,98418.28
2023-04-05T06:18:33.584Z,98419.22
2023-04-05T06:21:39.979Z,98417.97
2023-04-05T06:24:46.712Z,98416.94
2023-04-05T06:27:54.386Z,98415.44
2023-04-05T06:31:02.658Z,98406.72
2023-04-05T06:34:11.242Z,98419.72
2023-04-05T06:37:18.146Z,98417.47
2023-04-05T06:40:24.341Z,98415.28
2023-04-05T06:43:31.179Z,98419.16
2023-04-05T06:46:37.164Z,98417.72
2023-04-05T06:49:46.831Z,98417.34
2023-04-05T06:52:52.842Z,98412.28
2023-04-05T06:56:02.050Z,98416.41
2023-04-05T06:59:08.143Z,98408.78
2023-04-05T07:02:16.808Z,98416.41
2023-04-05T07:05:26.030Z,98411.09
2023-04-05T07:08:35.885Z,98417.47
2023-04-05T07:11:41.850Z,98417.72
2023-04-05T07:14:48.543Z,98420.47
2023-04-05T07:17:54.529Z,98419.13
2023-04-05T07:21:04.229Z,98411.28
2023-04-05T07:24:17.539Z,98420.13
2023-04-05T07:27:24.666Z,98426.34
2023-04-05T07:30:32.220Z,98421.63
2023-04-05T07:33:39.035Z,98423.25
2023-04-05T07:36:50.652Z,98428.09
2023-04-05T07:39:58.699Z,98419.03
2023-04-05T07:43:05.360Z,98420.50
2023-04-05T07:46:12.132Z,98430.03
2023-04-05T07:49:18.237Z,98421.06
2023-04-05T07:52:27.656Z,98420.53
2023-04-05T07:55:34.284Z,98420.06
2023-04-05T07:58:42.549Z,98426.94
2023-04-05T08:01:48.424Z,98409.25
2023-04-05T08:04:55.152Z,98414.94
2023-04-05T08:08:04.092Z,98414.75
2023-04-05T08:11:10.984Z,98411.47
2023-04-05T08:14:19.392Z,98410.53
2023-04-05T08:17:27.430Z,98408.06
2023-04-05T08:20:39.906Z,98403.16
2023-04-05T08:23:57.342Z,98394.63
2023-04-05T08:27:03.280Z,98389.88
2023-04-05T08:30:12.152Z,98395.50
2023-04-05T08:33:18.042Z,98386.59
2023-04-05T08:36:26.043Z,98390.56
2023-04-05T08:39:34.882Z,98390.56
2023-04-05T08:42:55.433Z,98390.34
2023-04-05T08:46:05.193Z,98391.47
2023-04-05T08:49:12.555Z,98392.09
2023-04-05T08:52:19.417Z,98397.63
2023-04-05T08:55:29.697Z,98400.03
2023-04-05T08:58:41.693Z,98395.97
2023-04-05T09:01:51.803Z,98388.31
2023-04-05T09:04:58.635Z,98389.31
2023-04-05T09:08:06.453Z,98390.81
2023-04-05T09:11:22.411Z,98387.06
2023-04-05T09:14:33.398Z,98395.13
2023-04-05T09:17:44.795Z,98387.81
2023-04-05T09:20:51.629Z,98390.34
2023-04-05T09:23:58.117Z,98394.03
2023-04-05T09:27:12.850Z,98393.91
2023-04-05T09:30:34.235Z,98392.88
2023-04-05T09:33:50.069Z,98391.84
2023-04-05T09:36:56.680Z,98385.25
2023-04-05T09:40:16.349Z,98374.47
2023-04-05T09:43:43.532Z,98374.34
2023-04-05T09:46:50.303Z,98375.69
2023-04-05T09:49:56.821Z,98375.53
2023-04-05T09:53:16.448Z,98375.50
2023-04-05T09:56:23.823Z,98367.38
2023-04-05T09:59:33.785Z,98364.50
2023-04-05T10:02:41.988Z,98366.34
2023-04-05T10:05:48.944Z,98367.28
2023-04-05T10:08:55.961Z,98368.59
2023-04-05T10:12:08.081Z,98368.44
2023-04-05T10:15:17.109Z,98374.00
2023-04-05T10:18:40.051Z,98365.06
2023-04-05T10:21:51.200Z,98365.75
2023-04-05T10:25:08.287Z,98358.06
2023-04-05T10:28:20.990Z,98354.03
2023-04-05T10:31:49.184Z,98350.41
2023-04-05T10:35:07.560Z,98345.69
2023-04-05T10:38:27.695Z,98339.34
2023-04-05T10:41:43.242Z,98342.53
2023-04-05T10:45:00.652Z,98341.53
2023-04-05T10:48:22.110Z,98340.50
2023-04-05T10:51:30.057Z,98343.09
2023-04-05T10:54:38.871Z,98342.13
2023-04-05T10:57:47.739Z,98334.72
2023-04-05T11:00:57.318Z,98323.44
2023-04-05T11:04:17.803Z,98335.75
2023-04-05T11:07:23.809Z,98333.53
2023-04-05T11:10:32.661Z,98335.41
2023-04-05T11:13:53.356Z,98329.00
2023-04-05T11:17:00.360Z,98327.00
2023-04-05T11:20:15.925Z,98336.13
2023-04-05T11:23:26.578Z,98329.47
2023-04-05T11:26:37.266Z,98327.41
2023-04-05T11:29:54.904Z,98329.25
2023-04-05T11:33:01.066Z,98326.19
2023-04-05T11:36:11.566Z,98330.94
2023-04-05T11:39:31.616Z,98329.56
2023-04-05T11:42:41.583Z,98324.41
2023-04-05T11:45:49.069Z,98320.34
2023-04-05T11:48:55.854Z,98318.00
2023-04-05T11:52:15.932Z,98328.31
2023-04-05T11:55:30.279Z,98333.56
2023-04-05T11:58:37.815Z,98327.72
2023-04-05T12:01:48.447Z,98319.72
2023-04-05T12:04:59.353Z,98327.31
2023-04-05T12:08:08.973Z,98323.75
2023-04-05T12:11:15.767Z,98327.06
2023-04-05T12:14:27.283Z,98327.34
2023-04-05T12:17:51.012Z,98315.91
2023-04-05T12:20:58.555Z,98317.53
2023-04-05T12:24:07.933Z,98307.25
2023-04-05T12:27:15.163Z,98305.28
2023-04-05T12:30:24.210Z,98303.69
2023-04-05T12:33:33.359Z,98307.88
2023-04-05T12:36:40.095Z,98307.88
2023-04-05T12:39:49.638Z,98311.00
2023-04-05T12:42:56.536Z,98313.06
2023-04-05T12:46:05.272Z,98306.56
2023-04-05T12:49:21.741Z,98304.50
2023-04-05T12:52:35.362Z,98306.66
2023-04-05T12:55:52.282Z,98309.56
2023-04-05T12:59:01.924Z,98302.44
2023-04-05T13:02:09.061Z,98305.13
2023-04-05T13:05:16.536Z,98304.34
2023-04-05T13:08:23.332Z,98297.00
2023-04-05T13:11:32.864Z,98301.84
2023-04-05T13:14:39.232Z,98302.00
2023-04-05T13:17:50.386Z,98300.84
2023-04-05T13:20:56.475Z,98297.03
2023-04-05T13:24:03.405Z,98295.28
2023-04-05T13:27:11.942Z,98303.66
2023-04-05T13:30:19.934Z,98297.16
2023-04-05T13:33:26.368Z,98297.66
2023-04-05T13:36:33.076Z,98289.72
2023-04-05T13:39:39.173Z,98290.56
2023-04-05T13:42:49.335Z,98288.63
2023-04-05T13:45:57.798Z,98301.50
2023-04-05T13:49:04.491Z,98288.81
2023-04-05T13:52:10.588Z,98286.19
2023-04-05T13:55:18.272Z,98284.56
2023-04-05T13:58:26.992Z,98293.09
2023-04-05T14:01:37.809Z,98295.38
2023-04-05T14:04:44.531Z,98298.84
2023-04-05T14:07:51.410Z,98293.59
2023-04-05T14:11:00.824Z,98291.81
2023-04-05T14:14:12.961Z,98289.34
2023-04-05T14:17:33.635Z,98289.00
2023-04-05T14:20:40.688Z,98288.91
2023-04-05T14:23:46.817Z,98286.53
2023-04-05T14:26:53.527Z,98290.88
2023-04-05T14:30:08.747Z,98292.78
2023-04-05T14:33:17.269Z,98287.84
2023-04-05T14:36:23.358Z,98288.03
2023-04-05T14:39:30.625Z,98292.59
2023-04-05T14:42:48.477Z,98288.84
2023-04-05T14:45:59.027Z,98298.38
2023-04-05T14:49:18.214Z,98295.09
2023-04-05T14:52:25.192Z,98296.50
2023-04-05T14:55:31.344Z,98300.28
2023-04-05T14:58:38.156Z,98298.88
2023-04-05T15:01:53.748Z,98302.66
2023-04-05T15:05:00.954Z,98298.41
2023-04-05T15:08:07.904Z,98298.56
2023-04-05T15:11:15.147Z,98283.03
2023-04-05T15:14:31.035Z,98286.75
2023-04-05T15:17:41.557Z,98290.44
2023-04-05T15:21:02.983Z,98292.25
2023-04-05T15:24:21.226Z,98287.75
2023-04-05T15:27:27.349Z,98288.00
2023-04-05T15:30:35.382Z,98290.47
2023-04-05T15:33:44.039Z,98288.13
2023-04-05T15:36:52.643Z,98289.75
2023-04-05T15:39:59.643Z,98290.06
2023-04-05T15:43:14.074Z,98287.19
2023-04-05T15:46:20.091Z,98291.13
2023-04-05T15:49:31.723Z,98289.31
2023-04-05T15:52:41.160Z,98296.81
2023-04-05T15:55:47.940Z,98288.03
2023-04-05T15:58:53.993Z,98298.16
2023-04-05T16:02:00.827Z,98299.28
2023-04-05T16:05:10.135Z,98296.66
2023-04-05T16:08:19.428Z,98299.28
2023-04-05T16:11:25.691Z,98296.63
2023-04-05T16:14:32.827Z,98296.91
2023-04-05T16:17:38.832Z,98295.09
2023-04-05T16:20:48.633Z,98299.97
2023-04-05T16:24:01.393Z,98303.88
2023-04-05T16:27:08.360Z,98301.91
2023-04-05T16:30:15.270Z,98304.38
2023-04-05T16:33:22.108Z,98302.16
2023-04-05T16:36:35.618Z,98305.47
2023-04-05T16:39:42.386Z,98305.16
2023-04-05T16:42:51.197Z,98316.13
2023-04-05T16:45:58.141Z,98307.00
2023-04-05T16:49:23.996Z,98305.06
2023-04-05T16:52:34.270Z,98309.25
2023-04-05T16:55:46.739Z,98311.59
2023-04-05T16:59:06.714Z,98319.91
2023-04-05T17:02:24.507Z,98314.19
2023-04-05T17:05:38.573Z,98313.06
2023-04-05T17:08:49.465Z,98319.66
2023-04-05T17:11:56.547Z,98327.59
2023-04-05T17:15:03.361Z,98323.84
2023-04-05T17:18:10.262Z,98329.78
2023-04-05T17:21:23.338Z,98324.63
2023-04-05T17:24:37.630Z,98325.72
2023-04-05T17:27:43.593Z,98327.59
2023-04-05T17:30:50.742Z,98327.09
2023-04-05T17:33:57.391Z,98336.75
2023-04-05T17:37:12.205Z,98338.38
2023-04-05T17:40:21.732Z,98336.59
2023-04-05T17:43:32.993Z,98339.91
2023-04-05T17:46:46.282Z,98341.75
2023-04-05T17:49:59.996Z,98345.03
2023-04-05T17:53:06.500Z,98348.50
2023-04-05T17:56:16.248Z,98350.56
2023-04-05T17:59:22.206Z,98358.81
2023-04-05T18:02:29.379Z,98357.78
2023-04-05T18:05:36.574Z,98358.94
2023-04-05T18:08:43.775Z,98352.75
2023-04-05T18:11:53.579Z,98357.53
2023-04-05T18:15:00.427Z,98358.53
2023-04-05T18:18:26.345Z,98358.44
2023-04-05T18:21:37.922Z,98356.53
2023-04-05T18:24:46.731Z,98366.59
2023-04-05T18:27:56.217Z,98368.25
2023-04-05T18:31:02.353Z,98370.41
2023-04-05T18:34:09.246Z,98377.25
2023-04-05T18:37:17.624Z,98384.16
2023-04-05T18:40:47.047Z,98376.78
2023-04-05T18:43:57.630Z,98380.72
2023-04-05T18:47:05.159Z,98380.47
2023-04-05T18:50:29.507Z,98368.06
2023-04-05T18:53:36.874Z,98375.59
2023-04-05T18:56:43.012Z,98370.34
2023-04-05T19:00:04.791Z,98380.94
2023-04-05T19:03:28.600Z,98375.81
2023-04-05T19:06:35.788Z,98379.66
2023-04-05T19:09:41.933Z,98385.47
2023-04-05T19:12:49.494Z,98379.13
2023-04-05T19:16:00.702Z,98375.81
2023-04-05T19:19:09.250Z,98377.09
2023-04-05T19:22:16.148Z,98374.34
2023-04-05T19:25:30.277Z,98371.47
2023-04-05T19:28:36.436Z,98368.69
2023-04-05T19:31:46.042Z,98378.34
2023-04-05T19:34:53.021Z,98374.28
2023-04-05T19:38:01.386Z,98371.66
2023-04-05T19:41:07.502Z,98369.72
2023-04-05T19:44:14.962Z,98373.66
2023-04-05T19:47:38.793Z,98367.91
2023-04-05T19:50:52.867Z,98376.22
2023-04-05T19:54:03.194Z,98375.13
2023-04-05T19:57:11.929Z,98376.72
2023-04-05T20:00:39.401Z,98369.41
2023-04-05T20:03:49.017Z,98369.66
2023-04-05T20:06:59.383Z,98374.53
2023-04-05T20:10:21.198Z,98369.94
2023-04-05T20:13:35.099Z,98366.56
2023-04-05T20:16:41.919Z,98356.78
2023-04-05T20:20:08.623Z,98361.19
2023-04-05T20:23:23.110Z,98358.88
2023-04-05T20:26:34.745Z,98363.59
2023-04-05T20:29:42.200Z,98363.09
2023-04-05T20:32:48.318Z,98361.44
2023-04-05T20:35:57.841Z,98364.38
2023-04-05T20:39:06.920Z,98357.38
2023-04-05T20:42:14.637Z,98352.81
2023-04-05T20:45:24.367Z,98356.16
2023-04-05T20:48:31.235Z,98353.53
2023-04-05T20:51:41.971Z,98353.63
2023-04-05T20:54:51.643Z,98353.03
2023-04-05T20:57:57.580Z,98355.84
2023-04-05T21:01:05.383Z,98353.34
2023-04-05T21:04:12.053Z,98359.63
2023-04-05T21:07:22.118Z,98353.03
2023-04-05T21:10:28.114Z,98352.63
2023-04-05T21:13:38.290Z,98355.97
2023-04-05T21:16:44.169Z,98357.03
2023-04-05T21:19:51.010Z,98353.47
2023-04-05T21:23:03.602Z,98355.97
2023-04-05T21:26:13.213Z,98345.63
2023-04-05T21:29:19.264Z,98349.69
2023-04-05T21:32:26.361Z,98355.25
2023-04-05T21:35:35.142Z,98352.94
2023-04-05T21:38:44.614Z,98347.72
2023-04-05T21:41:50.613Z,98343.63
2023-04-05T21:44:58.312Z,98342.78
2023-04-05T21:48:04.333Z,98349.81
2023-04-05T21:51:11.289Z,98337.88
2023-04-05T21:54:19.833Z,98341.56
2023-04-05T21:57:29.218Z,98351.16
2023-04-05T22:00:35.320Z,98345.63
2023-04-05T22:03:42.764Z,98344.88
2023-04-05T22:06:49.036Z,98343.41
2023-04-05T22:09:58.590Z,98349.69
2023-04-05T22:13:04.768Z,98348.94
2023-04-05T22:16:11.948Z,98344.88
2023-04-05T22:19:18.201Z,98349.38
2023-04-05T22:22:25.108Z,98350.41
2023-04-05T22:25:33.843Z,98352.41
2023-04-05T22:28:40.842Z,98350.91
2023-04-05T22:31:47.146Z,98347.69
2023-04-05T22:34:54.190Z,98346.94
2023-04-05T22:38:00.262Z,98345.25
2023-04-05T22:41:09.803Z,98346.19
2023-04-05T22:44:19.925Z,98352.38
2023-04-05T22:47:26.850Z,98346.41
2023-04-05T22:50:32.820Z,98340.44
2023-04-05T22:53:41.054Z,98339.59
2023-04-05T22:56:49.773Z,98350.13
2023-04-05T22:59:59.091Z,98339.06
2023-04-05T23:03:05.346Z,98346.06
2023-04-05T23:06:12.128Z,98344.28
2023-04-05T23:09:21.109Z,98340.84
2023-04-05T23:12:30.504Z,98340.94
2023-04-05T23:15:36.886Z,98335.50
2023-04-05T23:18:43.671Z,98334.56
2023-04-05T23:21:49.630Z,98333.63
2023-04-05T23:24:56.428Z,98330.28
2023-04-05T23:28:04.989Z,98336.75
2023-04-05T23:31:11.957Z,98335.28
2023-04-05T23:34:18.281Z,98331.19
2023-04-05T23:37:25.424Z,98327.94
2023-04-05T23:40:31.397Z,98331.47
2023-04-05T23:43:40.930Z,98335.88
2023-04-05T23:46:47.100Z,98325.53
2023-04-05T23:49:53.995Z,98322.06
2023-04-05T23:53:01.181Z,98325.00
2023-04-05T23:56:09.367Z,98325.09
2023-04-05T23:59:18.847Z,98315.03
